sensor_id;sensor_type;location;lat;lon;timestamp;pressure;altitude;pressure_sealevel;temperature;humidity
79780;BME280;69258;52.050;10.334;2023-06-04T00:03:10;100202.00;;;22.05;42.25
79780;BME280;69258;52.050;10.334;2023-06-04T00:18:12;100198.66;;;22.03;42.27
79780;BME280;69258;52.050;10.334;2023-06-04T00:33:14;100198.25;;;21.99;42.42
79780;BME280;69258;52.050;10.334;2023-06-04T00:48:16;100197.81;;;21.96;42.26
79780;BME280;69258;52.050;10.334;2023-06-04T01:03:19;100204.41;;;21.93;42.48
79780;BME280;69258;52.050;10.334;2023-06-04T01:18:27;100200.25;;;21.91;42.75
79780;BME280;69258;52.050;10.334;2023-06-04T01:33:29;100197.13;;;21.87;42.29
79780;BME280;69258;52.050;10.334;2023-06-04T01:48:31;100185.34;;;21.82;42.60
79780;BME280;69258;52.050;10.334;2023-06-04T02:03:33;100184.81;;;21.93;41.90
79780;BME280;69258;52.050;10.334;2023-06-04T02:18:35;100193.09;;;21.98;41.87
79780;BME280;69258;52.050;10.334;2023-06-04T02:33:37;100192.03;;;21.99;41.81
79780;BME280;69258;52.050;10.334;2023-06-04T02:48:39;100184.63;;;22.01;42.47
79780;BME280;69258;52.050;10.334;2023-06-04T03:03:41;100192.69;;;22.01;41.88
79780;BME280;69258;52.050;10.334;2023-06-04T03:18:43;100196.56;;;21.98;41.85
79780;BME280;69258;52.050;10.334;2023-06-04T03:33:44;100187.91;;;21.96;41.45
79780;BME280;69258;52.050;10.334;2023-06-04T03:48:46;100193.91;;;21.98;41.80
79780;BME280;69258;52.050;10.334;2023-06-04T04:03:48;100190.84;;;22.01;41.60
79780;BME280;69258;52.050;10.334;2023-06-04T04:18:50;100202.59;;;22.07;41.92
79780;BME280;69258;52.050;10.334;2023-06-04T04:33:52;100199.72;;;22.08;41.88
79780;BME280;69258;52.050;10.334;2023-06-04T04:48:53;100208.19;;;22.12;41.47
79780;BME280;69258;52.050;10.334;2023-06-04T05:03:55;100214.78;;;22.09;41.67
79780;BME280;69258;52.050;10.334;2023-06-04T05:18:57;100229.03;;;22.10;42.12
79780;BME280;69258;52.050;10.334;2023-06-04T05:33:59;100230.72;;;22.18;42.21
79780;BME280;69258;52.050;10.334;2023-06-04T05:49:01;100230.31;;;22.21;42.24
79780;BME280;69258;52.050;10.334;2023-06-04T06:04:02;100236.50;;;22.21;42.49
79780;BME280;69258;52.050;10.334;2023-06-04T06:19:04;100243.97;;;22.26;42.72
79780;BME280;69258;52.050;10.334;2023-06-04T06:34:06;100255.69;;;22.18;41.51
79780;BME280;69258;52.050;10.334;2023-06-04T06:49:08;100265.66;;;22.24;42.33
79780;BME280;69258;52.050;10.334;2023-06-04T07:04:10;100285.91;;;22.27;42.93
79780;BME280;69258;52.050;10.334;2023-06-04T07:19:11;100272.25;;;22.28;42.65
79780;BME280;69258;52.050;10.334;2023-06-04T07:34:13;100263.19;;;22.29;42.51
79780;BME280;69258;52.050;10.334;2023-06-04T07:49:15;100270.63;;;22.27;42.59
79780;BME280;69258;52.050;10.334;2023-06-04T08:04:18;100277.25;;;22.31;43.01
79780;BME280;69258;52.050;10.334;2023-06-04T08:19:20;100282.41;;;22.33;43.74
79780;BME280;69258;52.050;10.334;2023-06-04T08:34:21;100291.94;;;22.35;44.07
79780;BME280;69258;52.050;10.334;2023-06-04T08:49:25;100305.97;;;22.44;44.42
79780;BME280;69258;52.050;10.334;2023-06-04T09:04:27;100296.28;;;22.43;44.50
79780;BME280;69258;52.050;10.334;2023-06-04T09:19:30;100300.84;;;22.49;44.27
79780;BME280;69258;52.050;10.334;2023-06-04T09:34:32;100296.31;;;22.49;44.14
79780;BME280;69258;52.050;10.334;2023-06-04T09:49:43;100290.72;;;22.51;43.76
79780;BME280;69258;52.050;10.334;2023-06-04T10:04:49;100296.72;;;22.53;43.70
79780;BME280;69258;52.050;10.334;2023-06-04T10:19:52;100288.47;;;22.54;43.30
79780;BME280;69258;52.050;10.334;2023-06-04T10:34:54;100295.31;;;22.57;43.46
79780;BME280;69258;52.050;10.334;2023-06-04T10:50:07;100294.06;;;22.60;43.82
79780;BME280;69258;52.050;10.334;2023-06-04T11:05:10;100283.13;;;22.61;43.22
79780;BME280;69258;52.050;10.334;2023-06-04T11:20:18;100298.22;;;22.62;43.49
79780;BME280;69258;52.050;10.334;2023-06-04T11:35:20;100275.47;;;22.65;43.27
79780;BME280;69258;52.050;10.334;2023-06-04T11:50:23;100263.72;;;22.66;43.26
79780;BME280;69258;52.050;10.334;2023-06-04T12:05:31;100275.09;;;22.68;42.97
79780;BME280;69258;52.050;10.334;2023-06-04T12:20:33;100259.63;;;22.70;43.32
79780;BME280;69258;52.050;10.334;2023-06-04T12:35:35;100252.19;;;22.72;43.26
79780;BME280;69258;52.050;10.334;2023-06-04T12:50:37;100254.44;;;22.75;42.78
79780;BME280;69258;52.050;10.334;2023-06-04T13:05:39;100242.69;;;22.76;43.43
79780;BME280;69258;52.050;10.334;2023-06-04T13:20:41;100230.69;;;22.78;42.63
79780;BME280;69258;52.050;10.334;2023-06-04T13:35:43;100230.50;;;22.80;42.80
79780;BME280;69258;52.050;10.334;2023-06-04T13:50:45;100224.09;;;22.81;43.52
79780;BME280;69258;52.050;10.334;2023-06-04T14:05:46;100214.97;;;22.82;42.78
79780;BME280;69258;52.050;10.334;2023-06-04T14:20:48;100203.00;;;22.84;42.76
79780;BME280;69258;52.050;10.334;2023-06-04T14:35:50;100205.28;;;22.87;42.78
79780;BME280;69258;52.050;10.334;2023-06-04T14:50:52;100189.97;;;22.88;42.50
79780;BME280;69258;52.050;10.334;2023-06-04T15:05:54;100178.19;;;22.89;43.09
79780;BME280;69258;52.050;10.334;2023-06-04T15:21:11;100176.13;;;22.91;42.83
79780;BME280;69258;52.050;10.334;2023-06-04T15:36:13;100160.84;;;22.91;42.63
79780;BME280;69258;52.050;10.334;2023-06-04T15:51:14;100162.47;;;22.92;42.77
79780;BME280;69258;52.050;10.334;2023-06-04T16:06:16;100163.28;;;22.93;42.79
79780;BME280;69258;52.050;10.334;2023-06-04T16:21:18;100157.72;;;22.94;42.54
79780;BME280;69258;52.050;10.334;2023-06-04T16:36:20;100134.56;;;22.93;43.16
79780;BME280;69258;52.050;10.334;2023-06-04T16:51:21;100128.16;;;22.94;42.99
79780;BME280;69258;52.050;10.334;2023-06-04T17:06:23;100124.22;;;22.97;43.13
79780;BME280;69258;52.050;10.334;2023-06-04T17:21:25;100124.84;;;22.99;42.75
79780;BME280;69258;52.050;10.334;2023-06-04T17:36:27;100132.69;;;23.00;42.74
79780;BME280;69258;52.050;10.334;2023-06-04T17:51:29;100128.13;;;23.01;42.84
79780;BME280;69258;52.050;10.334;2023-06-04T18:06:30;100136.22;;;23.01;42.30
79780;BME280;69258;52.050;10.334;2023-06-04T18:21:32;100138.06;;;23.00;42.84
79780;BME280;69258;52.050;10.334;2023-06-04T18:36:34;100150.91;;;22.98;42.04
79780;BME280;69258;52.050;10.334;2023-06-04T18:51:36;100150.06;;;22.98;42.45
79780;BME280;69258;52.050;10.334;2023-06-04T19:06:38;100157.53;;;22.96;43.03
79780;BME280;69258;52.050;10.334;2023-06-04T19:21:40;100168.66;;;22.93;42.72
79780;BME280;69258;52.050;10.334;2023-06-04T19:36:41;100184.19;;;22.91;42.87
79780;BME280;69258;52.050;10.334;2023-06-04T19:51:43;100195.34;;;22.88;42.63
79780;BME280;69258;52.050;10.334;2023-06-04T20:06:45;100193.50;;;22.95;42.71
79780;BME280;69258;52.050;10.334;2023-06-04T20:21:47;100205.69;;;22.91;42.98
79780;BME280;69258;52.050;10.334;2023-06-04T20:36:49;100206.31;;;22.86;43.00
79780;BME280;69258;52.050;10.334;2023-06-04T20:51:51;100215.81;;;22.82;42.99
79780;BME280;69258;52.050;10.334;2023-06-04T21:06:53;100213.13;;;22.82;43.03
79780;BME280;69258;52.050;10.334;2023-06-04T21:21:54;100226.56;;;22.82;43.25
79780;BME280;69258;52.050;10.334;2023-06-04T21:36:56;100224.09;;;22.81;42.68
79780;BME280;69258;52.050;10.334;2023-06-04T21:51:58;100232.75;;;22.76;42.93
79780;BME280;69258;52.050;10.334;2023-06-04T22:22:07;100232.75;;;22.70;43.05
79780;BME280;69258;52.050;10.334;2023-06-04T22:37:09;100234.81;;;22.68;43.26
79780;BME280;69258;52.050;10.334;2023-06-04T22:52:11;100231.66;;;22.64;43.06
79780;BME280;69258;52.050;10.334;2023-06-04T23:07:13;100223.81;;;22.63;43.40
79780;BME280;69258;52.050;10.334;2023-06-04T23:22:14;100258.13;;;22.61;43.14
79780;BME280;69258;52.050;10.334;2023-06-04T23:37:16;100245.09;;;22.58;43.13
79780;BME280;69258;52.050;10.334;2023-06-04T23:52:21;100246.13;;;22.56;43.10
